Werte bis 5 Uhr SommerzeitDiagramme Gross-Gerau: Tagesdaten Monatsdaten WindroseCSV-Datei: Gross-Gerau21.csv

Wetterdaten 2021 Station: Gross-Gerau
Temperaturen in °C relative Nieder- Global- Wind Wind Wind- Sonnen-
Datum Boden Boden Luft Luft Luft Luft Feuchte schlag strahlung max richtung schein
20 cm 5 cm 20 cm 2 m 2 m max 2 m min % mm W/m2*d m/s m/s ° h

28.10.2021 10,9 9,5 3,9 4,9 6,0 4,3 99 0,0 0 0,5 1,3 25 ---
27.10.2021 10,7 10,4 9,4 10,0 16,4 4,4 92 0,1 2456 0,7 3,8 195 7,1
26.10.2021 10,3 10,2 9,4 10,2 17,3 5,6 89 0,3 2039 0,9 7,2 236 5,6
25.10.2021 9,7 8,6 3,9 4,0 12,1 -0,9 95 0,1 1866 0,3 2,4 342 5,4
24.10.2021 10,4 9,1 4,9 5,5 14,3 0,7 87 0,1 2933 0,7 4,4 12 7,9
23.10.2021 11,2 10,5 7,1 7,9 13,4 2,5 87 0,0 2079 0,5 3,3 247 8,5
22.10.2021 11,3 10,2 6,6 7,3 12,7 1,3 80 0,1 2711 1,5 7,7 256 7,6
21.10.2021 12,5 12,4 12,2 12,6 15,5 5,8 73 6,8 1700 3,7 17,6 262 5,2
20.10.2021 11,5 11,3 12,1 13,0 19,0 6,0 91 1,8 1128 1,5 7,8 210 3,8
19.10.2021 11,4 10,8 8,9 9,5 16,9 3,6 97 9,0 1083 0,9 5,1 237 3,5
18.10.2021 11,6 10,8 7,0 7,4 12,2 3,7 96 0,0 934 0,4 3,0 95 2,9
17.10.2021 11,7 11,2 8,2 8,6 13,9 5,0 90 0,0 2040 0,4 3,3 349 6,9
16.10.2021 11,7 10,8 6,6 6,7 14,6 1,1 92 0,1 2706 0,6 4,0 358 8,1
15.10.2021 12,1 11,5 8,0 9,1 16,5 4,1 92 0,1 1910 0,8 4,8 195 5,5
14.10.2021 12,2 11,7 9,5 9,8 16,1 6,0 91 0,0 1598 1,2 5,0 199 5,5
13.10.2021 12,0 11,3 7,5 7,8 13,3 2,2 91 1,2 2188 0,4 4,2 285 7,1
12.10.2021 12,3 11,6 8,4 8,9 12,4 4,9 97 10,5 876 0,6 4,3 235 2,4
11.10.2021 12,3 11,0 5,4 6,0 12,7 0,2 96 0,0 1244 0,6 3,3 193 4,9
10.10.2021 13,2 12,2 7,6 8,2 16,3 3,0 85 0,1 3409 0,6 3,0 9 8,3
09.10.2021 13,9 13,3 10,8 10,8 18,5 6,6 81 0,0 3653 1,1 5,9 33 8,2
08.10.2021 14,1 13,5 11,1 11,4 18,4 4,8 85 0,0 2932 0,9 5,8 27 7,9
07.10.2021 14,7 14,3 11,8 11,7 17,1 6,7 90 0,4 2582 0,8 4,4 125 6,8
06.10.2021 14,9 14,1 11,7 11,8 14,8 9,7 84 0,8 1501 1,8 7,9 202 3,9
05.10.2021 15,3 15,0 13,0 12,9 18,2 10,0 91 9,7 2259 1,3 8,2 186 5,9
04.10.2021 15,7 15,4 12,9 13,0 15,7 10,4 93 2,6 1470 1,2 4,8 190 6,8
03.10.2021 15,8 15,8 17,2 17,5 22,8 13,8 77 1,5 697 1,5 9,4 195 1,6
02.10.2021 15,2 15,3 16,0 16,0 22,0 9,5 72 0,0 3513 1,7 8,2 174 8,2
01.10.2021 14,8 14,3 10,9 11,1 20,4 3,8 80 0,0 3869 0,8 5,3 187 8,1
30.09.2021 15,1 14,4 9,9 10,4 18,3 4,4 81 0,0 3626 1,0 5,8 214 7,8
29.09.2021 16,2 15,6 12,2 12,5 18,0 7,5 82 0,6 2456 1,3 10,4 251 7,5
28.09.2021 17,0 16,9 13,5 13,5 20,1 8,6 85 0,3 3742 0,5 4,8 346 8,6
27.09.2021 16,9 17,3 17,2 17,3 22,4 14,0 90 0,5 2333 0,9 10,2 234 6,5
26.09.2021 16,5 16,6 15,9 16,4 20,3 11,0 94 8,0 1585 0,4 3,7 250 5,8
25.09.2021 16,1 16,1 14,7 15,1 24,9 7,0 82 0,0 4467 0,5 2,9 53 9,0
24.09.2021 16,2 16,0 14,2 15,5 21,9 10,1 81 0,0 2760 0,8 4,6 221 8,4
23.09.2021 16,0 15,7 12,9 13,8 25,2 4,2 76 0,0 4679 1,0 6,8 199 9,5
22.09.2021 16,4 15,8 11,4 11,7 20,9 5,1 84 0,0 4055 0,5 3,2 53 9,0
21.09.2021 17,1 17,0 13,6 13,3 18,7 7,8 66 0,0 4296 0,9 4,9 319 9,1
20.09.2021 17,4 17,1 14,2 14,0 17,5 11,9 71 0,0 2144 1,0 5,0 24 7,2
19.09.2021 17,7 17,4 15,0 14,7 20,5 10,4 79 0,0 3603 1,2 6,9 68 8,9
18.09.2021 18,1 18,0 15,1 15,2 23,1 8,2 83 0,0 4511 0,6 4,1 29 9,7
17.09.2021 18,6 18,5 15,5 15,6 22,4 11,5 86 0,0 3121 0,4 2,7 22 8,9
16.09.2021 19,2 19,5 17,4 17,2 20,5 13,5 82 4,6 3383 0,8 5,4 302 8,7
15.09.2021 19,1 19,4 19,1 19,2 22,9 16,1 94 5,4 1582 1,2 6,7 241 6,0
14.09.2021 18,8 19,1 18,9 18,8 25,9 12,9 82 0,0 3872 0,6 3,3 30 9,5
13.09.2021 18,8 18,8 16,6 16,4 24,8 9,3 81 0,0 4904 0,7 4,7 23 9,9
12.09.2021 19,2 19,2 16,8 17,0 24,8 10,9 82 0,1 5259 0,7 5,2 253 10,2
11.09.2021 19,8 20,1 18,5 18,9 22,8 14,4 91 14,8 2513 1,0 4,9 198 6,5
10.09.2021 19,9 20,5 21,0 21,0 26,7 18,1 75 0,8 3376 1,3 6,3 219 9,2
09.09.2021 19,4 20,0 20,5 20,5 28,7 12,3 73 0,0 4883 1,1 7,3 205 10,0
08.09.2021 19,3 19,8 19,9 19,8 27,8 14,2 70 0,0 5409 1,4 7,6 44 10,9
07.09.2021 19,2 19,6 18,2 18,4 27,5 11,7 77 0,0 4468 0,6 3,5 59 9,6
06.09.2021 19,2 19,8 19,8 19,8 29,1 12,1 73 0,0 5194 0,6 3,4 13 10,3
05.09.2021 19,0 19,6 20,2 19,8 28,6 13,7 71 0,0 5562 1,0 4,3 19 10,8
04.09.2021 18,6 19,1 18,5 18,6 27,7 10,9 75 0,0 5787 0,8 5,2 354 11,2
03.09.2021 18,4 18,9 18,7 18,3 26,9 12,3 74 0,0 5898 1,2 6,7 69 11,2
02.09.2021 18,0 18,2 16,8 16,6 24,8 9,3 78 0,0 5613 1,2 8,7 54 11,0
01.09.2021 17,9 17,9 15,2 15,2 23,0 8,4 81 0,0 5012 0,7 5,6 342 11,1
31.08.2021 18,2 18,2 16,1 16,4 22,6 11,2 79 0,0 3749 0,7 5,7 16 10,9
30.08.2021 18,1 18,1 16,9 16,9 20,4 14,5 85 0,3 1959 0,7 5,6 351 7,2
29.08.2021 18,1 17,8 15,0 15,1 16,5 13,9 96 6,8 1130 0,6 3,6 313 3,1
28.08.2021 18,5 18,3 15,3 15,2 20,1 12,5 84 0,8 2964 0,5 3,6 109 9,1
27.08.2021 18,9 18,6 14,8 14,8 20,4 11,2 83 1,5 2314 0,8 5,8 321 7,8
26.08.2021 19,5 19,7 17,3 17,0 21,9 12,7 72 2,7 4695 1,2 7,2 273 9,5
25.08.2021 19,2 19,5 17,6 17,1 24,3 10,1 69 0,0 6430 0,9 5,7 53 11,5
24.08.2021 19,4 19,3 15,6 15,7 22,3 9,5 79 0,2 5321 1,0 6,1 60 11,1
23.08.2021 19,8 19,9 16,9 16,8 24,2 12,7 90 2,9 4072 0,6 5,9 299 8,6
22.08.2021 20,7 20,7 18,3 18,3 23,5 13,2 89 10,9 2658 1,4 7,7 243 9,2
21.08.2021 20,6 21,4 20,9 20,4 29,2 13,5 74 0,0 5392 0,8 5,6 122 10,9
20.08.2021 20,2 21,0 20,4 19,9 26,2 14,5 74 0,0 5332 0,6 4,6 277 10,6
19.08.2021 19,7 20,0 19,2 19,1 22,6 16,0 77 0,0 2645 1,2 6,6 239 8,5
18.08.2021 19,3 19,4 17,8 17,6 22,1 13,8 80 0,0 2924 1,3 6,0 252 7,9
17.08.2021 19,8 19,1 14,4 14,4 20,1 9,6 79 3,7 3334 1,4 6,7 247 8,9
16.08.2021 21,4 21,4 18,2 18,4 24,7 11,7 75 2,5 3192 1,5 9,1 259 9,8
15.08.2021 21,8 22,6 21,7 21,5 30,2 12,8 69 0,0 6395 0,6 4,0 313 12,1
14.08.2021 21,8 22,8 22,6 22,5 31,9 13,7 71 0,0 6961 0,7 5,1 245 12,0
13.08.2021 21,5 22,5 22,7 22,6 32,0 16,3 81 1,6 5228 0,8 4,5 17 10,5
12.08.2021 20,9 21,7 22,0 21,3 29,6 13,8 77 0,0 5493 0,6 3,3 23 12,2
11.08.2021 20,5 21,5 21,1 20,5 28,5 12,4 73 0,0 6745 0,6 4,5 334 12,0
10.08.2021 19,9 20,6 19,7 19,4 26,6 13,8 72 0,0 5233 1,0 7,2 271 10,4
09.08.2021 19,3 19,4 17,5 17,6 25,1 10,2 72 0,0 5259 1,2 6,9 226 11,7
08.08.2021 19,6 19,7 17,6 17,4 23,2 12,9 74 4,6 5039 2,0 11,9 230 11,3
07.08.2021 20,0 19,8 17,7 17,6 22,1 12,9 84 0,6 2473 1,2 8,1 224 8,7
06.08.2021 20,5 20,8 18,4 18,5 23,4 13,9 81 3,9 4143 2,0 8,8 247 10,7
05.08.2021 20,3 20,9 19,2 18,7 26,6 11,0 78 0,2 6044 1,0 9,6 239 10,7
04.08.2021 20,0 20,2 17,2 16,9 22,7 13,2 87 1,0 3573 0,7 5,8 183 10,3
03.08.2021 20,3 20,2 16,2 15,9 22,4 11,9 90 11,7 3934 1,1 6,5 182 10,1
02.08.2021 20,9 21,0 16,6 16,6 23,0 10,3 81 7,4 4599 1,1 8,8 209 10,7
01.08.2021 21,2 21,8 19,3 18,6 25,4 13,4 70 0,0 5852 1,1 7,1 305 10,5
31.07.2021 21,5 21,7 18,9 19,2 24,5 13,4 61 0,0 5318 1,6 9,1 255 12,1
30.07.2021 21,4 22,1 20,6 20,2 28,8 10,4 66 0,0 7271 1,3 7,7 286 12,5
29.07.2021 21,3 21,8 19,3 19,3 24,7 13,7 67 0,0 6458 1,7 9,3 261 11,1
28.07.2021 21,6 21,8 19,0 19,2 25,4 14,4 83 7,8 3904 1,5 8,3 220 10,2
27.07.2021 22,1 22,6 20,8 20,5 27,5 14,2 76 2,3 4586 1,2 8,9 217 11,5
26.07.2021 22,2 22,8 20,8 20,4 27,9 13,1 77 0,5 5420 1,3 6,5 203 11,8
25.07.2021 22,2 23,2 21,7 21,1 29,5 14,4 75 0,1 6060 1,0 6,1 233 10,2
24.07.2021 22,3 22,8 20,8 20,6 27,1 16,1 75 1,1 4335 1,2 7,7 345 10,8
23.07.2021 22,4 23,3 21,6 20,6 29,7 11,0 68 0,0 7487 0,7 5,4 25 13,0
22.07.2021 22,2 23,0 20,6 20,1 28,5 11,7 66 0,0 7506 0,8 5,2 352 12,7
21.07.2021 21,9 22,8 19,9 19,3 27,3 10,3 63 0,0 8032 0,9 5,8 25 13,0
20.07.2021 22,1 22,6 19,2 18,6 26,1 11,2 70 0,0 7073 0,7 3,8 144 12,7
19.07.2021 22,3 23,4 21,3 20,7 26,9 13,6 70 0,0 7571 1,1 6,4 223 11,8
18.07.2021 21,7 22,9 22,2 21,9 30,3 11,8 69 0,0 7895 0,9 6,9 33 13,0
17.07.2021 21,4 22,4 21,8 21,6 27,8 17,5 77 0,0 4774 0,9 5,6 286 10,8
16.07.2021 20,8 21,6 20,2 19,5 26,2 14,1 84 0,9 5315 0,9 5,4 326 12,0
15.07.2021 20,2 21,0 19,6 19,0 25,5 14,7 81 0,0 5000 0,8 4,4 143 10,2
14.07.2021 20,1 19,9 17,0 16,9 19,6 15,9 90 0,8 1573 1,9 6,6 198 4,2
13.07.2021 21,0 21,2 18,6 18,6 22,7 16,4 95 14,5 1867 1,2 7,3 203 6,6
12.07.2021 21,0 21,7 20,8 20,6 27,1 14,2 77 0,5 5315 1,0 6,6 80 13,2
11.07.2021 21,0 21,5 19,0 18,9 25,0 15,4 83 1,3 4675 0,9 4,4 258 10,8
10.07.2021 20,6 21,3 19,8 19,5 27,2 11,2 76 10,5 6613 0,7 11,5 6 12,9
09.07.2021 20,5 20,9 18,2 18,2 24,0 14,9 87 3,6 3567 0,7 4,2 330 8,1
08.07.2021 20,9 21,0 18,1 18,0 24,2 13,7 89 6,1 2858 0,7 5,5 201 9,2
07.07.2021 20,7 21,9 20,1 19,9 26,9 14,0 70 0,0 7622 1,2 6,3 213 12,0
06.07.2021 20,5 20,4 17,7 18,0 20,5 14,1 90 6,8 2062 1,2 6,5 212 7,7
05.07.2021 20,9 21,2 19,0 18,9 24,5 14,6 84 1,2 3982 1,8 7,1 205 10,0
04.07.2021 21,6 22,2 19,9 19,7 26,0 16,0 83 1,6 4054 1,3 6,9 200 11,0
03.07.2021 21,0 22,3 20,6 20,3 28,1 11,7 71 0,0 7802 0,7 4,3 285 13,3
02.07.2021 20,3 21,1 18,7 18,2 24,4 12,3 74 0,0 6557 0,9 6,7 283 12,5
01.07.2021 20,4 20,1 15,9 15,8 18,6 14,1 83 3,2 2027 1,1 5,4 267 7,6
30.06.2021 21,1 21,2 16,9 16,8 21,6 12,4 84 1,9 4215 1,5 7,2 252 10,0
29.06.2021 22,5 22,8 19,5 19,4 28,1 15,2 88 35,1 4398 1,3 14,0 233 7,4
28.06.2021 22,4 23,7 23,3 23,0 31,0 15,8 76 0,6 6195 0,8 4,4 219 11,4
27.06.2021 22,0 23,1 22,4 22,1 30,0 16,2 71 0,7 6181 1,1 7,2 28 12,3
26.06.2021 21,4 22,4 20,1 19,5 27,6 11,2 73 0,0 7932 0,6 4,7 346 12,6
25.06.2021 21,1 21,9 19,2 18,8 23,2 14,3 80 0,9 5887 1,0 5,8 265 12,6
24.06.2021 21,3 21,1 17,7 17,6 19,4 15,9 93 15,1 2049 0,8 4,3 95 6,8
23.06.2021 21,6 22,4 20,6 19,9 27,1 13,9 75 0,0 6353 1,1 5,7 85 11,4
22.06.2021 22,3 22,0 17,1 16,8 19,9 13,8 86 7,2 3499 1,1 6,7 3 10,9
21.06.2021 23,6 24,6 21,7 21,3 27,8 17,0 74 2,7 6811 2,1 8,0 219 12,0
20.06.2021 24,3 26,0 26,2 25,9 31,1 18,6 60 12,4 6408 1,9 12,3 214 11,7
19.06.2021 24,0 26,1 26,8 26,5 34,5 18,5 66 0,1 8143 0,8 5,0 43 12,8
18.06.2021 23,6 25,5 27,3 27,1 36,2 17,4 62 3,4 7014 0,9 7,5 140 12,7
17.06.2021 23,2 25,3 26,8 26,6 35,7 17,1 57 0,0 8199 1,1 6,1 200 13,7
16.06.2021 22,6 24,5 25,9 25,7 33,9 17,9 56 0,0 8031 1,1 5,8 44 13,3
15.06.2021 21,8 23,3 22,7 22,4 31,8 11,2 63 0,0 8076 0,8 4,7 333 13,1
14.06.2021 21,3 22,7 20,5 20,3 29,3 11,6 58 0,0 8825 0,9 4,7 62 13,7
13.06.2021 21,0 22,2 18,7 18,4 25,6 11,2 60 0,0 8717 0,9 3,9 296 13,6
12.06.2021 21,6 22,6 20,6 20,7 27,7 14,6 70 0,0 5905 1,2 8,0 272 12,5
11.06.2021 21,3 23,0 22,1 21,7 30,4 12,2 67 0,0 8351 0,8 5,8 314 12,9
10.06.2021 20,9 22,4 21,7 21,5 29,2 13,6 69 0,0 7497 0,8 5,2 271 13,3
09.06.2021 20,1 21,8 21,5 21,2 28,4 14,3 73 0,0 7446 0,7 5,8 326 12,9
08.06.2021 19,1 20,3 20,1 19,8 26,3 16,0 82 9,2 4676 0,7 4,0 102 11,9
07.06.2021 18,9 19,3 17,7 17,5 22,6 14,9 89 21,2 3071 1,0 5,4 65 7,4
06.06.2021 19,6 20,6 18,4 17,9 22,7 15,6 84 2,2 4487 1,1 4,9 328 8,0
05.06.2021 19,9 20,9 18,8 18,5 23,8 13,0 89 4,0 4416 1,1 7,0 243 12,3
04.06.2021 20,1 22,0 22,0 21,5 29,8 14,7 75 3,1 6239 0,9 9,4 178 11,9
03.06.2021 19,4 21,4 21,5 21,0 29,9 13,2 68 0,0 6879 0,9 7,2 356 11,7
02.06.2021 18,3 20,2 20,3 20,1 28,8 9,5 52 0,0 8522 0,9 5,1 349 13,2
01.06.2021 17,4 18,9 18,0 17,6 26,2 7,4 54 0,0 8724 1,4 7,8 21 13,4
31.05.2021 16,6 18,0 15,9 15,7 24,1 5,7 57 0,0 8648 1,1 6,1 110 13,4
30.05.2021 16,0 17,2 16,1 15,7 23,1 8,4 56 0,0 7825 1,4 7,0 33 13,0
29.05.2021 14,9 16,2 15,2 14,8 22,0 5,9 60 0,0 7827 1,1 7,0 49 12,5
28.05.2021 13,8 14,8 13,7 13,2 19,9 8,4 72 0,1 5376 0,7 4,5 45 12,4
27.05.2021 13,0 13,0 10,3 10,5 14,5 3,9 86 2,3 2806 1,6 7,6 243 9,5
26.05.2021 13,3 13,2 10,8 10,8 14,9 8,0 85 3,1 2292 2,1 9,2 238 7,4
25.05.2021 14,1 13,7 10,4 10,4 14,8 8,7 74 3,4 2299 3,4 11,8 253 6,4
24.05.2021 14,6 15,2 11,7 11,5 22,0 3,3 77 1,1 5407 1,5 12,5 231 9,3
23.05.2021 14,5 15,2 12,7 12,4 18,0 7,1 69 0,1 5615 2,3 9,9 252 11,2
22.05.2021 14,7 14,9 12,4 12,3 17,0 8,6 69 3,2 4374 3,6 13,5 241 11,4
21.05.2021 15,3 15,8 14,9 14,6 18,1 11,5 60 0,0 4893 3,4 11,8 229 11,8
20.05.2021 15,3 16,3 13,8 13,2 17,9 8,8 70 0,0 5586 1,4 7,1 246 11,1
19.05.2021 14,8 15,7 12,1 11,7 18,4 5,5 75 0,0 6256 1,7 9,3 245 11,2
18.05.2021 14,6 15,4 12,4 12,1 16,2 9,2 79 4,1 5355 1,6 9,0 239 10,1
17.05.2021 14,6 15,2 12,4 12,3 16,5 8,2 83 3,6 4438 2,4 10,5 239 10,3
16.05.2021 14,4 15,2 12,9 12,5 18,7 8,5 81 6,2 5664 2,4 11,4 215 9,3
15.05.2021 14,7 14,9 12,0 11,7 15,1 9,0 82 8,2 3453 2,5 8,5 202 9,5
14.05.2021 14,9 16,0 14,1 13,5 19,5 6,9 69 0,0 5832 1,7 6,4 221 12,0
13.05.2021 14,4 15,6 13,3 12,6 20,8 5,5 76 0,0 6451 1,4 7,6 239 11,6
12.05.2021 14,0 15,1 13,9 13,5 18,6 9,0 83 0,4 4312 1,1 5,3 258 10,7
11.05.2021 13,7 14,5 14,0 13,8 17,5 11,3 94 2,0 2510 1,0 4,8 250 8,1
10.05.2021 13,9 14,7 15,4 15,8 20,1 12,6 81 3,6 1933 1,3 7,7 219 7,5
09.05.2021 12,7 14,5 17,1 17,1 29,3 4,5 62 0,0 6966 1,3 8,7 237 12,1
08.05.2021 11,4 11,8 9,3 9,0 17,9 -1,7 67 0,0 5710 1,4 6,9 195 12,8
07.05.2021 11,1 11,8 8,4 8,0 12,7 2,1 71 0,5 6724 1,7 9,3 280 12,4
06.05.2021 10,7 10,3 6,7 6,6 11,2 2,3 90 5,1 2209 1,4 8,2 193 6,5
05.05.2021 11,0 11,1 8,2 8,1 11,9 3,8 71 1,9 4946 2,8 14,4 263 10,2
04.05.2021 11,5 11,0 9,9 10,2 13,4 6,8 64 2,3 1426 4,6 14,7 232 3,0
03.05.2021 12,0 12,2 7,8 7,9 15,5 -1,4 62 0,0 5708 1,4 8,3 232 12,2
02.05.2021 12,2 13,0 10,4 10,0 13,7 2,6 49 0,0 6458 1,5 8,4 287 11,2
01.05.2021 11,7 12,0 10,1 9,8 14,9 3,1 65 0,0 3969 1,0 5,0 205 10,7
30.04.2021 12,0 11,5 6,6 6,6 10,7 -0,7 74 0,0 2920 0,8 3,7 188 11,9
29.04.2021 13,3 14,1 12,3 12,1 18,2 4,7 71 6,5 5819 2,5 10,2 245 11,6
28.04.2021 12,7 13,7 13,3 12,8 22,2 5,1 52 6,1 6062 1,4 8,7 247 10,4
27.04.2021 12,3 13,2 11,4 11,0 18,7 3,8 37 0,0 7268 1,4 6,6 65 12,5
26.04.2021 12,0 12,7 10,4 9,8 17,1 1,2 40 0,0 7450 1,6 8,4 69 12,3
25.04.2021 12,0 12,8 10,6 9,9 15,8 4,7 47 0,0 7291 1,8 7,4 24 12,1
24.04.2021 11,6 12,4 10,7 10,4 17,6 0,8 54 0,0 7014 1,4 6,3 15 12,0
23.04.2021 11,2 11,9 8,9 8,6 17,2 -0,5 59 0,0 7102 0,9 6,7 325 12,1
22.04.2021 11,1 11,8 10,3 9,9 15,6 4,6 51 0,0 6803 1,5 7,8 319 11,7
21.04.2021 10,8 11,5 10,1 10,4 20,4 1,2 71 1,4 4887 0,7 7,8 138 10,9
20.04.2021 10,1 11,0 8,9 8,9 18,2 0,4 75 0,1 6024 0,7 6,3 287 11,1
19.04.2021 9,7 10,5 9,5 9,3 14,8 4,3 88 5,0 3238 0,7 6,1 46 9,9
18.04.2021 9,2 9,7 8,4 8,2 13,8 4,0 78 0,7 2824 0,7 3,7 328 9,8
17.04.2021 8,4 9,1 7,3 7,0 12,3 1,0 62 0,0 4909 1,2 8,1 45 9,0
16.04.2021 7,9 7,7 5,0 5,0 8,6 0,0 67 0,0 2742 1,0 6,5 59 9,0
15.04.2021 7,7 7,5 4,2 4,1 11,6 -3,6 66 0,0 4828 1,2 7,0 60 11,0
14.04.2021 7,8 7,4 3,3 3,2 10,5 -3,3 69 0,0 4121 0,9 7,0 354 9,7
13.04.2021 8,0 7,6 3,3 3,1 10,3 -4,1 72 0,1 4361 0,8 6,2 304 10,6
12.04.2021 8,7 8,8 4,9 4,7 9,9 -1,3 76 0,6 4025 1,2 7,6 318 9,8
11.04.2021 9,0 9,3 8,2 8,2 15,4 3,8 90 7,4 1962 1,4 6,9 214 4,3
10.04.2021 8,7 9,2 9,6 9,8 12,3 7,9 86 2,6 1089 1,0 5,7 196 2,7
09.04.2021 7,6 7,9 7,4 7,4 17,6 -3,8 58 0,1 5240 1,5 8,6 215 10,6
08.04.2021 7,2 7,0 4,3 4,2 9,8 -0,2 56 0,0 4030 1,3 5,9 244 10,6
07.04.2021 7,4 6,6 3,1 3,0 5,2 1,0 66 0,2 1858 3,0 12,7 291 7,0
06.04.2021 7,5 6,7 3,1 2,7 7,9 -0,8 65 0,0 3826 2,5 10,0 251 7,1
05.04.2021 8,7 7,7 2,8 3,2 8,0 -1,4 76 1,3 1514 2,1 11,5 304 4,8
04.04.2021 9,5 9,4 5,7 5,5 12,8 -2,4 65 0,0 4937 0,9 5,2 337 10,9
03.04.2021 10,0 10,3 8,6 8,3 13,9 2,6 50 0,0 5290 1,4 8,2 322 10,5
02.04.2021 10,4 10,4 9,1 8,9 14,6 4,1 59 0,0 3530 1,6 7,9 18 8,4
01.04.2021 10,4 11,3 14,4 14,7 25,5 4,3 59 0,0 4916 1,1 8,0 60 10,2
31.03.2021 9,8 10,7 13,5 13,8 25,3 2,9 54 0,0 5548 0,7 4,6 334 10,7
30.03.2021 9,2 9,9 12,1 12,5 24,0 0,5 53 0,0 5588 0,7 4,6 304 10,7
29.03.2021 8,6 9,4 11,8 12,5 22,4 3,8 52 0,0 5437 1,2 8,0 214 10,4
28.03.2021 8,0 8,4 9,3 9,4 16,3 2,8 65 0,0 4241 1,7 9,6 235 8,9
27.03.2021 8,3 8,4 8,0 8,1 11,4 4,0 67 0,0 3304 3,4 14,4 260 8,1
26.03.2021 8,0 8,9 11,7 11,6 17,4 6,3 64 0,0 4352 1,7 8,6 194 9,1
25.03.2021 7,0 7,2 7,6 7,7 17,3 -1,1 71 0,0 3851 1,3 7,0 239 10,1
24.03.2021 6,6 6,7 5,6 5,6 15,2 -2,9 75 0,0 4988 0,8 4,9 220 10,2
23.03.2021 6,6 6,9 6,3 6,4 10,5 1,0 72 0,0 2511 0,8 5,0 267 8,2
22.03.2021 6,1 6,1 6,0 6,0 8,3 4,2 68 0,0 1282 1,3 5,8 323 5,0
21.03.2021 6,0 6,0 5,8 5,8 10,6 2,5 67 0,0 1964 1,7 8,9 221 6,9
20.03.2021 5,5 5,1 2,4 2,1 7,3 -3,1 61 0,0 4759 0,9 5,2 11 9,7
19.03.2021 5,9 5,8 3,1 2,9 7,6 -2,2 79 0,6 3130 1,4 9,3 46 8,3
18.03.2021 5,6 5,0 2,2 1,9 7,9 -3,9 83 0,8 2940 0,7 6,2 164 8,5
17.03.2021 6,2 6,0 3,4 3,6 7,7 -1,7 87 3,6 1636 0,8 5,3 338 5,1
16.03.2021 6,3 6,1 5,5 5,7 9,5 2,9 76 2,6 1566 1,3 7,9 278 5,2
15.03.2021 6,2 6,2 5,7 5,7 10,1 3,1 81 4,5 2555 2,0 11,4 228 6,6
14.03.2021 6,3 6,1 4,9 5,0 8,2 3,0 81 0,8 1825 2,2 8,5 246 6,5
13.03.2021 6,6 6,7 6,9 7,2 9,7 4,3 79 2,6 1977 4,6 18,4 228 5,5
12.03.2021 6,4 6,6 7,2 7,5 10,6 4,3 68 2,1 2607 4,2 12,1 243 7,2
11.03.2021 6,2 6,6 9,0 9,4 15,1 5,4 75 3,9 1317 4,2 13,3 228 3,1
10.03.2021 5,5 5,8 6,6 6,5 10,9 2,2 78 0,0 1898 1,5 5,7 207 6,8
09.03.2021 4,7 4,7 3,7 3,5 7,9 -1,0 81 0,0 1995 0,9 5,3 250 5,8
08.03.2021 4,2 3,6 1,4 1,5 7,2 -5,6 75 0,0 2590 0,6 4,3 59 7,9
07.03.2021 4,4 3,4 2,0 2,0 10,0 -4,5 59 0,0 3951 1,0 5,8 23 8,5
06.03.2021 5,0 3,9 1,0 1,0 8,5 -4,4 65 0,0 3876 1,1 7,5 58 8,7
05.03.2021 6,3 6,2 3,5 3,7 7,3 -2,5 79 1,7 2046 1,2 6,7 19 7,2
04.03.2021 6,0 6,4 7,7 8,0 14,8 3,2 83 1,1 2238 1,0 9,6 228 5,4
03.03.2021 5,3 5,1 4,9 5,2 14,1 -1,8 82 0,0 2612 0,5 4,0 194 7,1
02.03.2021 5,2 5,1 6,5 6,9 15,1 1,2 75 0,0 3579 0,8 3,5 42 8,4
01.03.2021 4,8 4,3 5,0 5,3 13,9 -1,4 79 0,0 3429 1,0 6,6 72 8,2
28.02.2021 5,0 4,6 4,6 4,8 11,6 -1,1 74 0,0 3466 1,0 7,7 26 8,3
27.02.2021 5,1 4,6 3,5 3,6 9,2 -1,7 84 0,0 3360 0,9 6,2 30 7,9
26.02.2021 5,8 5,3 3,7 4,3 8,2 -0,1 96 2,8 520 0,5 6,1 98 ---
25.02.2021 6,1 6,3 8,1 8,6 19,0 -0,1 79 0,0 3231 0,6 3,1 241 8,3
24.02.2021 5,9 6,3 9,0 9,7 19,0 3,0 84 0,0 2870 0,5 3,5 174 8,0
23.02.2021 5,3 5,7 8,4 8,8 18,7 1,8 83 0,0 2776 1,0 5,6 192 7,9
22.02.2021 4,7 4,8 5,8 6,2 12,9 -0,3 85 0,0 2643 0,8 3,9 44 8,5
21.02.2021 4,4 4,4 6,8 7,2 18,9 -1,6 79 0,0 3194 0,6 2,9 54 8,4
20.02.2021 4,2 4,5 6,7 6,9 16,3 -0,1 86 0,0 2752 0,8 4,4 167 7,8
19.02.2021 3,5 3,8 6,0 6,4 12,1 -0,4 85 0,0 2638 1,1 6,1 209 7,7
18.02.2021 2,8 2,6 2,9 3,2 9,6 -1,8 92 0,0 1427 0,5 4,9 145 5,8
17.02.2021 1,9 2,2 6,3 7,1 11,9 1,6 86 1,2 1206 1,6 6,7 214 4,1
16.02.2021 1,3 0,3 3,4 3,8 9,9 0,4 89 0,0 1723 0,7 5,5 194 5,9
15.02.2021 1,3 0,2 -1,7 -1,6 1,6 -5,9 74 0,9 828 1,0 5,5 104 2,5
14.02.2021 1,4 0,1 -3,4 -3,3 3,5 -9,2 67 0,0 2743 1,6 7,8 68 7,3
13.02.2021 1,7 0,5 -5,3 -5,3 0,8 -9,7 67 0,0 2816 1,5 8,3 63 7,7
12.02.2021 2,1 0,9 -5,0 -4,9 -0,5 -10,1 71 0,0 2824 1,5 7,5 45 7,8
11.02.2021 2,5 1,2 -6,3 -6,2 -0,1 -11,0 85 0,0 1994 0,5 3,9 35 6,1
10.02.2021 3,1 1,8 -7,8 -7,8 -3,5 -10,4 71 0,0 1754 1,7 7,8 39 6,8
09.02.2021 3,9 2,9 -6,8 -6,9 -4,2 -9,4 70 0,0 1241 1,3 5,8 30 5,1
08.02.2021 4,6 3,4 -4,3 -4,5 -2,5 -6,3 86 0,8 706 0,0 0,6 --- 1,5
07.02.2021 5,7 5,1 1,8 1,8 3,5 -2,5 98 5,5 280 1,4 6,7 36 ---
06.02.2021 6,2 6,1 5,1 5,2 6,4 3,0 98 13,4 181 1,6 6,2 27 ---
05.02.2021 6,0 5,9 5,5 5,5 7,6 2,9 97 5,6 548 0,5 3,5 43 0,1
04.02.2021 6,5 6,6 7,4 7,6 10,7 2,9 80 0,6 1858 1,9 10,9 233 6,4
03.02.2021 6,2 6,9 10,1 10,7 12,9 9,6 90 12,2 377 3,1 9,8 199 0,2
02.02.2021 5,0 5,3 6,9 7,3 10,8 3,8 95 3,2 471 1,7 6,8 202 0,5
01.02.2021 4,4 4,2 3,0 3,0 4,6 1,3 99 4,6 477 0,8 4,0 51 ---
31.01.2021 4,4 3,7 0,6 0,6 1,8 -0,6 90 1,8 627 1,4 5,0 57 1,5
30.01.2021 5,4 5,2 3,8 4,0 8,3 0,2 92 6,2 514 2,1 8,8 358 1,0
29.01.2021 5,1 5,8 8,9 9,3 12,0 7,4 82 3,6 858 3,0 12,6 239 3,3
28.01.2021 3,6 3,7 5,3 5,7 11,0 2,0 95 14,0 260 2,0 6,2 215 ---
27.01.2021 3,2 2,4 0,8 1,0 2,3 0,1 95 0,3 362 2,3 7,7 205 0,2
26.01.2021 3,4 2,7 1,8 2,2 4,3 -0,7 80 0,0 258 2,1 7,8 238 ---
25.01.2021 3,7 3,1 0,4 0,5 2,5 -1,4 94 0,4 502 0,5 3,1 290 0,4
24.01.2021 4,2 3,7 1,7 2,0 4,5 -1,1 86 2,6 585 2,9 11,4 259 0,7
23.01.2021 4,4 3,9 2,8 3,1 5,0 1,1 94 0,0 414 1,3 5,1 141 0,2
22.01.2021 4,9 5,1 5,5 5,8 10,2 1,4 90 8,1 456 2,3 11,1 221 ---
21.01.2021 3,8 4,0 7,8 8,4 10,1 6,6 70 2,0 533 3,9 12,7 215 0,1
20.01.2021 3,0 2,6 4,2 4,9 8,7 1,1 71 0,0 780 1,4 5,6 200 3,2
19.01.2021 3,1 2,7 2,7 3,0 4,1 1,4 84 1,1 189 3,2 9,3 226 ---
18.01.2021 2,6 2,3 2,4 2,7 5,2 0,4 88 0,0 840 1,7 8,5 234 2,3
17.01.2021 2,2 1,5 -0,8 -0,9 0,8 -2,5 98 0,9 535 1,1 4,1 208 1,5
16.01.2021 2,1 1,3 -0,5 -0,4 0,8 -1,9 73 0,2 424 1,1 5,3 227 0,4
15.01.2021 2,3 1,2 -0,7 -0,4 1,9 -3,3 82 0,0 873 0,8 6,0 18 3,6
14.01.2021 2,4 1,7 1,1 1,5 3,4 -2,0 76 0,0 636 0,8 4,0 337 2,0
13.01.2021 2,3 1,2 0,2 0,8 4,8 -3,5 89 0,0 1327 1,4 8,2 228 4,1
12.01.2021 2,3 1,2 1,4 1,8 4,0 0,1 89 5,8 226 2,9 8,1 215 ---
11.01.2021 2,5 1,0 -2,8 -3,0 1,7 -7,8 88 0,0 1431 1,5 7,4 200 5,2
10.01.2021 3,2 1,8 -1,9 -1,8 3,5 -5,7 89 0,0 1645 0,4 2,3 204 6,1
09.01.2021 4,1 3,1 0,1 0,3 3,4 -2,7 88 0,0 753 0,5 5,4 44 2,0
08.01.2021 4,3 3,6 1,6 1,7 3,0 0,7 91 0,6 578 1,5 5,1 239 1,3
07.01.2021 4,5 3,8 1,8 1,9 3,0 1,1 87 0,4 395 1,3 4,6 240 ---
06.01.2021 4,5 3,9 2,3 2,4 4,0 1,2 92 0,6 356 0,8 4,7 7 0,2
05.01.2021 4,5 3,8 2,0 2,1 3,3 1,5 92 0,8 338 1,2 4,9 25 ---
04.01.2021 4,5 3,7 1,2 1,3 2,2 0,2 97 0,8 249 0,8 3,6 27 ---
03.01.2021 4,6 3,7 1,1 1,2 3,1 -1,4 93 2,4 298 0,7 5,0 20 ---
02.01.2021 5,0 4,3 1,5 1,7 3,9 -0,5 88 0,0 548 0,6 4,3 348 ---
01.01.2021 5,1 4,6 2,5 2,5 3,7 1,2 97 0,6 371 0,5 2,5 273 0,1

Mittelwerte (Temperaturen, Strahlung, rel. Feuchte, Wind), Summe (Regen) für 2021
13,1 13,3 11,6 11,6 78 538 3.741 1,2

Landesbetrieb Landwirtschaft Hessen 2009

      Werte bis 5 Uhr SommerzeitCSV-Datei: Gross-Gerau21.csvDiagramm: Gross-Gerau